sensor_id;sensor_type;location;lat;lon;timestamp;pressure;altitude;pressure_sealevel;temperature;humidity
4024;BME280;2026;51.002;13.668;2023-03-14T00:03:42;96942.06;;;11.20;100.00
4024;BME280;2026;51.002;13.668;2023-03-14T00:08:46;96931.38;;;11.16;100.00
4024;BME280;2026;51.002;13.668;2023-03-14T00:13:51;96903.81;;;11.13;100.00
4024;BME280;2026;51.002;13.668;2023-03-14T00:18:54;96919.56;;;11.08;100.00
4024;BME280;2026;51.002;13.668;2023-03-14T00:23:57;96904.34;;;11.15;100.00
4024;BME280;2026;51.002;13.668;2023-03-14T00:29:01;96901.81;;;10.90;100.00
4024;BME280;2026;51.002;13.668;2023-03-14T00:34:04;96906.81;;;10.76;100.00
4024;BME280;2026;51.002;13.668;2023-03-14T00:39:07;96906.84;;;10.60;100.00
4024;BME280;2026;51.002;13.668;2023-03-14T00:44:11;96930.97;;;10.46;100.00
4024;BME280;2026;51.002;13.668;2023-03-14T00:49:14;96933.59;;;10.62;100.00
4024;BME280;2026;51.002;13.668;2023-03-14T00:54:18;96934.59;;;10.66;100.00
4024;BME280;2026;51.002;13.668;2023-03-14T00:59:22;96937.25;;;10.40;100.00
4024;BME280;2026;51.002;13.668;2023-03-14T01:04:26;96922.31;;;10.46;100.00
4024;BME280;2026;51.002;13.668;2023-03-14T01:09:29;96932.50;;;10.68;100.00
4024;BME280;2026;51.002;13.668;2023-03-14T01:14:33;96936.19;;;10.78;100.00
4024;BME280;2026;51.002;13.668;2023-03-14T01:19:38;96912.59;;;10.78;100.00
4024;BME280;2026;51.002;13.668;2023-03-14T01:24:41;96911.28;;;10.65;100.00
4024;BME280;2026;51.002;13.668;2023-03-14T01:29:45;96921.47;;;10.87;100.00
4024;BME280;2026;51.002;13.668;2023-03-14T01:34:50;96919.91;;;10.86;100.00
4024;BME280;2026;51.002;13.668;2023-03-14T01:39:53;96928.31;;;10.72;100.00
4024;BME280;2026;51.002;13.668;2023-03-14T01:44:59;96914.41;;;10.72;100.00
4024;BME280;2026;51.002;13.668;2023-03-14T01:50:06;96898.19;;;10.70;100.00
4024;BME280;2026;51.002;13.668;2023-03-14T01:55:15;96895.81;;;10.68;100.00
4024;BME280;2026;51.002;13.668;2023-03-14T02:00:22;96910.72;;;10.88;96.63
4024;BME280;2026;51.002;13.668;2023-03-14T02:05:28;96907.06;;;10.90;96.90
4024;BME280;2026;51.002;13.668;2023-03-14T02:10:44;96897.06;;;10.92;95.07
4024;BME280;2026;51.002;13.668;2023-03-14T02:15:49;96903.09;;;10.97;94.19
4024;BME280;2026;51.002;13.668;2023-03-14T02:21:18;96887.78;;;11.25;91.33
4024;BME280;2026;51.002;13.668;2023-03-14T02:26:29;96882.28;;;11.22;91.03
4024;BME280;2026;51.002;13.668;2023-03-14T02:31:35;96866.00;;;11.20;90.78
4024;BME280;2026;51.002;13.668;2023-03-14T02:36:39;96858.44;;;11.13;90.94
4024;BME280;2026;51.002;13.668;2023-03-14T02:41:43;96868.88;;;11.28;89.03
4024;BME280;2026;51.002;13.668;2023-03-14T02:46:48;96872.50;;;11.43;87.58
4024;BME280;2026;51.002;13.668;2023-03-14T02:51:52;96877.19;;;11.46;87.37
4024;BME280;2026;51.002;13.668;2023-03-14T02:56:55;96879.25;;;11.54;86.31
4024;BME280;2026;51.002;13.668;2023-03-14T03:02:00;96860.84;;;11.60;85.38
4024;BME280;2026;51.002;13.668;2023-03-14T03:07:05;96852.56;;;11.47;86.34
4024;BME280;2026;51.002;13.668;2023-03-14T03:12:08;96846.78;;;11.40;86.58
4024;BME280;2026;51.002;13.668;2023-03-14T03:17:13;96850.13;;;11.51;85.74
4024;BME280;2026;51.002;13.668;2023-03-14T03:22:15;96842.81;;;11.53;85.74
4024;BME280;2026;51.002;13.668;2023-03-14T03:27:18;96844.94;;;11.46;85.85
4024;BME280;2026;51.002;13.668;2023-03-14T03:32:23;96845.72;;;11.46;85.46
4024;BME280;2026;51.002;13.668;2023-03-14T03:37:26;96852.56;;;11.47;85.25
4024;BME280;2026;51.002;13.668;2023-03-14T03:42:29;96856.19;;;11.46;85.05
4024;BME280;2026;51.002;13.668;2023-03-14T03:47:34;96854.66;;;11.40;85.01
4024;BME280;2026;51.002;13.668;2023-03-14T03:52:37;96863.25;;;11.51;83.85
4024;BME280;2026;51.002;13.668;2023-03-14T03:57:40;96850.72;;;11.37;84.36
4024;BME280;2026;51.002;13.668;2023-03-14T04:02:44;96834.75;;;11.28;85.11
4024;BME280;2026;51.002;13.668;2023-03-14T04:07:50;96839.50;;;11.32;84.59
4024;BME280;2026;51.002;13.668;2023-03-14T04:12:58;96851.63;;;11.12;85.64
4024;BME280;2026;51.002;13.668;2023-03-14T04:18:05;96850.91;;;11.01;86.61
4024;BME280;2026;51.002;13.668;2023-03-14T04:23:08;96850.91;;;11.01;85.73
4024;BME280;2026;51.002;13.668;2023-03-14T04:28:11;96867.19;;;10.98;85.39
4024;BME280;2026;51.002;13.668;2023-03-14T04:33:17;96858.22;;;11.04;84.51
4024;BME280;2026;51.002;13.668;2023-03-14T04:38:26;96858.00;;;10.95;84.09
4024;BME280;2026;51.002;13.668;2023-03-14T04:43:30;96858.34;;;10.73;86.86
4024;BME280;2026;51.002;13.668;2023-03-14T04:48:39;96835.53;;;10.73;85.96
4024;BME280;2026;51.002;13.668;2023-03-14T04:53:42;96839.13;;;10.93;83.55
4024;BME280;2026;51.002;13.668;2023-03-14T04:58:48;96854.06;;;10.93;82.84
4024;BME280;2026;51.002;13.668;2023-03-14T05:03:53;96838.63;;;10.86;82.92
4024;BME280;2026;51.002;13.668;2023-03-14T05:09:13;96831.53;;;10.92;82.43
4024;BME280;2026;51.002;13.668;2023-03-14T05:14:39;96830.28;;;10.73;83.25
4024;BME280;2026;51.002;13.668;2023-03-14T05:20:12;96841.06;;;10.67;83.21
4024;BME280;2026;51.002;13.668;2023-03-14T05:25:34;96852.06;;;10.69;82.96
4024;BME280;2026;51.002;13.668;2023-03-14T05:31:08;96839.19;;;10.78;82.65
4024;BME280;2026;51.002;13.668;2023-03-14T05:36:23;96830.22;;;10.89;81.60
4024;BME280;2026;51.002;13.668;2023-03-14T05:41:55;96841.28;;;10.81;82.76
4024;BME280;2026;51.002;13.668;2023-03-14T05:47:21;96827.09;;;10.82;82.53
4024;BME280;2026;51.002;13.668;2023-03-14T05:52:41;96826.34;;;10.71;82.68
4024;BME280;2026;51.002;13.668;2023-03-14T05:58:04;96831.59;;;10.81;82.10
4024;BME280;2026;51.002;13.668;2023-03-14T06:03:27;96819.00;;;10.78;81.81
4024;BME280;2026;51.002;13.668;2023-03-14T06:08:32;96819.47;;;10.91;81.19
4024;BME280;2026;51.002;13.668;2023-03-14T06:13:37;96822.91;;;10.86;81.05
4024;BME280;2026;51.002;13.668;2023-03-14T06:18:40;96830.28;;;10.73;83.09
4024;BME280;2026;51.002;13.668;2023-03-14T06:23:46;96839.75;;;10.69;82.64
4024;BME280;2026;51.002;13.668;2023-03-14T06:28:50;96846.00;;;10.73;81.98
4024;BME280;2026;51.002;13.668;2023-03-14T06:33:55;96844.94;;;10.80;82.86
4024;BME280;2026;51.002;13.668;2023-03-14T06:39:04;96864.06;;;10.85;81.87
4024;BME280;2026;51.002;13.668;2023-03-14T06:44:10;96868.69;;;11.04;80.56
4024;BME280;2026;51.002;13.668;2023-03-14T06:49:12;96876.38;;;10.90;82.01
4024;BME280;2026;51.002;13.668;2023-03-14T06:54:18;96876.09;;;10.97;82.23
4024;BME280;2026;51.002;13.668;2023-03-14T06:59:21;96858.47;;;11.08;81.57
4024;BME280;2026;51.002;13.668;2023-03-14T07:04:24;96859.50;;;11.17;80.40
4024;BME280;2026;51.002;13.668;2023-03-14T07:09:29;96866.63;;;11.01;81.81
4024;BME280;2026;51.002;13.668;2023-03-14T07:14:34;96871.78;;;11.22;80.71
4024;BME280;2026;51.002;13.668;2023-03-14T07:19:37;96874.13;;;11.28;80.22
4024;BME280;2026;51.002;13.668;2023-03-14T07:24:43;96865.75;;;11.21;80.27
4024;BME280;2026;51.002;13.668;2023-03-14T07:29:46;96867.56;;;11.26;80.76
4024;BME280;2026;51.002;13.668;2023-03-14T07:34:49;96867.53;;;11.31;79.91
4024;BME280;2026;51.002;13.668;2023-03-14T07:39:54;96884.28;;;11.40;80.11
4024;BME280;2026;51.002;13.668;2023-03-14T07:45:00;96878.03;;;11.36;80.05
4024;BME280;2026;51.002;13.668;2023-03-14T07:50:05;96882.19;;;11.42;80.83
4024;BME280;2026;51.002;13.668;2023-03-14T07:55:10;96876.66;;;11.49;79.76
4024;BME280;2026;51.002;13.668;2023-03-14T08:00:15;96866.66;;;11.56;79.30
4024;BME280;2026;51.002;13.668;2023-03-14T08:05:19;96856.16;;;11.56;78.57
4024;BME280;2026;51.002;13.668;2023-03-14T08:10:23;96865.03;;;11.66;78.24
4024;BME280;2026;51.002;13.668;2023-03-14T08:15:29;96865.25;;;11.69;78.47
4024;BME280;2026;51.002;13.668;2023-03-14T08:20:32;96877.31;;;11.76;76.75
4024;BME280;2026;51.002;13.668;2023-03-14T08:25:37;96871.72;;;11.88;77.00
4024;BME280;2026;51.002;13.668;2023-03-14T08:30:40;96866.94;;;11.95;75.11
4024;BME280;2026;51.002;13.668;2023-03-14T08:35:48;96870.22;;;12.11;75.22
4024;BME280;2026;51.002;13.668;2023-03-14T08:40:56;96868.28;;;12.22;74.77
4024;BME280;2026;51.002;13.668;2023-03-14T08:46:01;96865.56;;;12.32;73.89
4024;BME280;2026;51.002;13.668;2023-03-14T08:51:05;96868.72;;;12.34;74.03
4024;BME280;2026;51.002;13.668;2023-03-14T08:56:10;96864.41;;;12.44;73.08
4024;BME280;2026;51.002;13.668;2023-03-14T09:01:13;96877.78;;;12.18;73.25
4024;BME280;2026;51.002;13.668;2023-03-14T09:06:16;96865.75;;;12.11;73.79
4024;BME280;2026;51.002;13.668;2023-03-14T09:11:21;96850.16;;;12.50;73.60
4024;BME280;2026;51.002;13.668;2023-03-14T09:16:24;96851.13;;;12.59;72.38
4024;BME280;2026;51.002;13.668;2023-03-14T09:21:27;96854.97;;;12.43;73.36
4024;BME280;2026;51.002;13.668;2023-03-14T09:26:31;96863.25;;;12.55;73.36
4024;BME280;2026;51.002;13.668;2023-03-14T09:31:34;96869.34;;;12.21;74.33
4024;BME280;2026;51.002;13.668;2023-03-14T09:36:37;96869.91;;;12.18;73.57
4024;BME280;2026;51.002;13.668;2023-03-14T09:41:43;96860.97;;;12.19;73.34
4024;BME280;2026;51.002;13.668;2023-03-14T09:46:51;96870.34;;;12.25;73.90
4024;BME280;2026;51.002;13.668;2023-03-14T09:51:57;96877.72;;;12.23;74.32
4024;BME280;2026;51.002;13.668;2023-03-14T09:57:08;96882.22;;;12.22;73.70
4024;BME280;2026;51.002;13.668;2023-03-14T10:02:16;96869.47;;;12.05;73.80
4024;BME280;2026;51.002;13.668;2023-03-14T10:07:25;96874.13;;;12.14;73.20
4024;BME280;2026;51.002;13.668;2023-03-14T10:12:33;96883.91;;;12.08;72.51
4024;BME280;2026;51.002;13.668;2023-03-14T10:17:41;96888.78;;;12.20;73.00
4024;BME280;2026;51.002;13.668;2023-03-14T10:22:44;96876.88;;;11.98;73.37
4024;BME280;2026;51.002;13.668;2023-03-14T10:27:49;96866.56;;;12.07;72.90
4024;BME280;2026;51.002;13.668;2023-03-14T10:32:52;96867.78;;;12.20;71.22
4024;BME280;2026;51.002;13.668;2023-03-14T10:37:57;96872.00;;;12.16;72.32
4024;BME280;2026;51.002;13.668;2023-03-14T10:43:04;96876.25;;;12.11;71.68
4024;BME280;2026;51.002;13.668;2023-03-14T10:48:22;96872.94;;;12.30;72.44
4024;BME280;2026;51.002;13.668;2023-03-14T10:53:25;96874.63;;;12.16;72.23
4024;BME280;2026;51.002;13.668;2023-03-14T10:58:33;96874.81;;;12.24;71.17
4024;BME280;2026;51.002;13.668;2023-03-14T11:03:41;96873.34;;;12.13;72.27
4024;BME280;2026;51.002;13.668;2023-03-14T11:08:49;96875.56;;;12.30;71.99
4024;BME280;2026;51.002;13.668;2023-03-14T11:14:06;96866.28;;;12.08;71.95
4024;BME280;2026;51.002;13.668;2023-03-14T11:19:29;96870.81;;;12.32;71.58
4024;BME280;2026;51.002;13.668;2023-03-14T11:24:45;96871.59;;;12.33;70.71
4024;BME280;2026;51.002;13.668;2023-03-14T11:30:03;96869.91;;;12.47;71.31
4024;BME280;2026;51.002;13.668;2023-03-14T11:35:16;96865.34;;;13.07;69.39
4024;BME280;2026;51.002;13.668;2023-03-14T11:40:21;96857.47;;;13.02;69.49
4024;BME280;2026;51.002;13.668;2023-03-14T11:45:30;96848.31;;;12.75;70.73
4024;BME280;2026;51.002;13.668;2023-03-14T11:50:36;96833.16;;;12.42;70.46
4024;BME280;2026;51.002;13.668;2023-03-14T11:55:42;96838.47;;;12.61;70.26
4024;BME280;2026;51.002;13.668;2023-03-14T12:00:48;96842.06;;;12.46;70.21
4024;BME280;2026;51.002;13.668;2023-03-14T12:06:02;96817.03;;;12.73;69.28
4024;BME280;2026;51.002;13.668;2023-03-14T12:11:12;96825.31;;;12.86;68.66
4024;BME280;2026;51.002;13.668;2023-03-14T12:16:33;96814.22;;;12.89;68.02
4024;BME280;2026;51.002;13.668;2023-03-14T12:21:47;96811.34;;;12.90;68.31
4024;BME280;2026;51.002;13.668;2023-03-14T12:26:56;96810.06;;;13.31;67.27
4024;BME280;2026;51.002;13.668;2023-03-14T12:32:12;96808.25;;;13.27;68.88
4024;BME280;2026;51.002;13.668;2023-03-14T12:37:29;96803.19;;;13.30;70.13
4024;BME280;2026;51.002;13.668;2023-03-14T12:42:43;96804.59;;;13.80;70.13
4024;BME280;2026;51.002;13.668;2023-03-14T12:47:53;96806.94;;;13.82;68.17
4024;BME280;2026;51.002;13.668;2023-03-14T12:58:30;96791.47;;;14.08;66.71
4024;BME280;2026;51.002;13.668;2023-03-14T13:03:44;96775.22;;;13.87;66.76
4024;BME280;2026;51.002;13.668;2023-03-14T13:08:48;96794.97;;;14.03;65.85
4024;BME280;2026;51.002;13.668;2023-03-14T13:13:57;96795.56;;;14.14;65.85
4024;BME280;2026;51.002;13.668;2023-03-14T13:19:06;96790.44;;;14.23;65.06
4024;BME280;2026;51.002;13.668;2023-03-14T13:24:22;96770.91;;;14.24;65.47
4024;BME280;2026;51.002;13.668;2023-03-14T13:29:27;96783.47;;;13.99;66.26
4024;BME280;2026;51.002;13.668;2023-03-14T13:34:34;96771.66;;;14.11;65.92
4024;BME280;2026;51.002;13.668;2023-03-14T13:39:40;96753.81;;;14.36;65.18
4024;BME280;2026;51.002;13.668;2023-03-14T13:44:43;96767.63;;;14.61;64.22
4024;BME280;2026;51.002;13.668;2023-03-14T13:49:50;96769.38;;;14.51;63.94
4024;BME280;2026;51.002;13.668;2023-03-14T13:54:53;96767.00;;;14.08;64.34
4024;BME280;2026;51.002;13.668;2023-03-14T14:00:03;96764.00;;;13.81;64.97
4024;BME280;2026;51.002;13.668;2023-03-14T14:05:11;96761.28;;;13.86;65.75
4024;BME280;2026;51.002;13.668;2023-03-14T14:10:14;96740.59;;;13.80;65.96
4024;BME280;2026;51.002;13.668;2023-03-14T14:15:20;96756.59;;;13.83;65.26
4024;BME280;2026;51.002;13.668;2023-03-14T14:20:29;96753.34;;;14.06;64.32
4024;BME280;2026;51.002;13.668;2023-03-14T14:25:36;96746.50;;;14.33;65.06
4024;BME280;2026;51.002;13.668;2023-03-14T14:30:40;96724.03;;;13.93;64.86
4024;BME280;2026;51.002;13.668;2023-03-14T14:35:52;96742.53;;;13.88;64.09
4024;BME280;2026;51.002;13.668;2023-03-14T14:41:01;96729.22;;;13.65;65.17
4024;BME280;2026;51.002;13.668;2023-03-14T14:46:06;96727.59;;;13.69;65.29
4024;BME280;2026;51.002;13.668;2023-03-14T14:51:23;96725.88;;;13.45;65.17
4024;BME280;2026;51.002;13.668;2023-03-14T14:56:27;96726.41;;;13.61;65.98
4024;BME280;2026;51.002;13.668;2023-03-14T15:01:32;96737.47;;;13.78;65.15
4024;BME280;2026;51.002;13.668;2023-03-14T15:06:37;96724.16;;;13.69;66.13
4024;BME280;2026;51.002;13.668;2023-03-14T15:11:41;96723.03;;;13.89;65.85
4024;BME280;2026;51.002;13.668;2023-03-14T15:16:44;96733.81;;;13.59;66.80
4024;BME280;2026;51.002;13.668;2023-03-14T15:21:48;96725.81;;;13.51;67.77
4024;BME280;2026;51.002;13.668;2023-03-14T15:26:51;96725.22;;;13.20;67.82
4024;BME280;2026;51.002;13.668;2023-03-14T15:31:54;96739.56;;;13.09;68.28
4024;BME280;2026;51.002;13.668;2023-03-14T15:36:59;96741.63;;;13.12;68.78
4024;BME280;2026;51.002;13.668;2023-03-14T15:42:05;96743.00;;;13.10;68.33
4024;BME280;2026;51.002;13.668;2023-03-14T15:47:09;96751.72;;;13.05;69.21
4024;BME280;2026;51.002;13.668;2023-03-14T15:52:14;96758.28;;;13.07;69.08
4024;BME280;2026;51.002;13.668;2023-03-14T15:57:17;96753.78;;;13.08;69.69
4024;BME280;2026;51.002;13.668;2023-03-14T16:02:20;96770.16;;;13.05;70.00
4024;BME280;2026;51.002;13.668;2023-03-14T16:07:24;96782.53;;;12.99;70.15
4024;BME280;2026;51.002;13.668;2023-03-14T16:12:27;96804.44;;;12.94;71.52
4024;BME280;2026;51.002;13.668;2023-03-14T16:17:30;96823.75;;;12.60;74.34
4024;BME280;2026;51.002;13.668;2023-03-14T16:22:35;96844.22;;;12.39;78.33
4024;BME280;2026;51.002;13.668;2023-03-14T16:27:38;96859.53;;;12.02;82.57
4024;BME280;2026;51.002;13.668;2023-03-14T16:32:41;96874.69;;;11.76;86.34
4024;BME280;2026;51.002;13.668;2023-03-14T16:37:45;96911.28;;;11.51;88.58
4024;BME280;2026;51.002;13.668;2023-03-14T16:42:49;96934.75;;;11.22;90.34
4024;BME280;2026;51.002;13.668;2023-03-14T16:48:12;97038.72;;;8.85;89.05
4024;BME280;2026;51.002;13.668;2023-03-14T16:53:16;97087.06;;;8.05;91.27
4024;BME280;2026;51.002;13.668;2023-03-14T16:58:20;97107.16;;;7.25;93.11
4024;BME280;2026;51.002;13.668;2023-03-14T17:03:23;97150.13;;;7.57;92.80
4024;BME280;2026;51.002;13.668;2023-03-14T17:08:30;97195.03;;;7.13;92.99
4024;BME280;2026;51.002;13.668;2023-03-14T17:13:34;97213.59;;;6.58;91.94
4024;BME280;2026;51.002;13.668;2023-03-14T17:18:37;97266.94;;;6.32;92.87
4024;BME280;2026;51.002;13.668;2023-03-14T17:23:42;97314.81;;;6.19;91.81
4024;BME280;2026;51.002;13.668;2023-03-14T17:28:45;97342.97;;;5.98;93.43
4024;BME280;2026;51.002;13.668;2023-03-14T17:33:48;97386.16;;;5.57;95.03
4024;BME280;2026;51.002;13.668;2023-03-14T17:38:53;97435.72;;;5.24;93.41
4024;BME280;2026;51.002;13.668;2023-03-14T17:43:59;97467.03;;;4.92;95.48
4024;BME280;2026;51.002;13.668;2023-03-14T17:49:02;97480.50;;;4.25;98.14
4024;BME280;2026;51.002;13.668;2023-03-14T17:54:06;97525.06;;;4.47;96.22
4024;BME280;2026;51.002;13.668;2023-03-14T17:59:10;97554.50;;;3.88;99.43
4024;BME280;2026;51.002;13.668;2023-03-14T18:04:13;97576.63;;;3.98;98.89
4024;BME280;2026;51.002;13.668;2023-03-14T18:09:19;97616.00;;;3.41;100.00
4024;BME280;2026;51.002;13.668;2023-03-14T18:14:22;97627.28;;;3.94;100.00
4024;BME280;2026;51.002;13.668;2023-03-14T18:19:25;97652.28;;;3.54;99.01
4024;BME280;2026;51.002;13.668;2023-03-14T18:24:29;97667.03;;;3.47;99.99
4024;BME280;2026;51.002;13.668;2023-03-14T18:29:32;97684.97;;;3.35;100.00
4024;BME280;2026;51.002;13.668;2023-03-14T18:34:36;97699.31;;;3.24;100.00
4024;BME280;2026;51.002;13.668;2023-03-14T18:39:40;97715.66;;;3.72;99.80
4024;BME280;2026;51.002;13.668;2023-03-14T18:44:43;97732.63;;;3.54;100.00
4024;BME280;2026;51.002;13.668;2023-03-14T18:49:46;97736.75;;;3.08;100.00
4024;BME280;2026;51.002;13.668;2023-03-14T18:54:50;97742.38;;;3.45;99.79
4024;BME280;2026;51.002;13.668;2023-03-14T18:59:53;97754.97;;;3.82;96.90
4024;BME280;2026;51.002;13.668;2023-03-14T19:04:58;97772.13;;;3.63;99.25
4024;BME280;2026;51.002;13.668;2023-03-14T19:10:03;97789.25;;;3.57;99.62
4024;BME280;2026;51.002;13.668;2023-03-14T19:15:07;97791.25;;;3.96;96.76
4024;BME280;2026;51.002;13.668;2023-03-14T19:20:12;97802.84;;;3.86;96.72
4024;BME280;2026;51.002;13.668;2023-03-14T19:25:16;97827.47;;;3.42;96.11
4024;BME280;2026;51.002;13.668;2023-03-14T19:30:19;97833.69;;;3.54;97.07
4024;BME280;2026;51.002;13.668;2023-03-14T19:35:23;97841.72;;;3.80;94.70
4024;BME280;2026;51.002;13.668;2023-03-14T19:40:28;97864.06;;;3.74;93.53
4024;BME280;2026;51.002;13.668;2023-03-14T19:45:31;97874.75;;;3.57;92.71
4024;BME280;2026;51.002;13.668;2023-03-14T19:50:37;97884.75;;;3.60;92.48
4024;BME280;2026;51.002;13.668;2023-03-14T19:55:42;97898.44;;;3.41;91.48
4024;BME280;2026;51.002;13.668;2023-03-14T20:00:47;97910.25;;;3.50;90.98
4024;BME280;2026;51.002;13.668;2023-03-14T20:05:50;97922.03;;;3.59;90.37
4024;BME280;2026;51.002;13.668;2023-03-14T20:10:55;97936.09;;;3.37;89.78
4024;BME280;2026;51.002;13.668;2023-03-14T20:15:58;97949.13;;;3.50;88.96
4024;BME280;2026;51.002;13.668;2023-03-14T20:21:05;97957.91;;;3.56;90.09
4024;BME280;2026;51.002;13.668;2023-03-14T20:26:10;97966.22;;;3.44;88.77
4024;BME280;2026;51.002;13.668;2023-03-14T20:31:13;97975.22;;;3.49;89.29
4024;BME280;2026;51.002;13.668;2023-03-14T20:36:16;97992.22;;;3.65;89.40
4024;BME280;2026;51.002;13.668;2023-03-14T20:41:21;97994.81;;;3.65;88.57
4024;BME280;2026;51.002;13.668;2023-03-14T20:46:24;97999.16;;;3.57;88.27
4024;BME280;2026;51.002;13.668;2023-03-14T20:51:27;98003.72;;;3.49;86.70
4024;BME280;2026;51.002;13.668;2023-03-14T20:56:31;98013.91;;;3.50;84.67
4024;BME280;2026;51.002;13.668;2023-03-14T21:01:34;98020.91;;;3.21;84.18
4024;BME280;2026;51.002;13.668;2023-03-14T21:06:37;98040.53;;;3.37;83.08
4024;BME280;2026;51.002;13.668;2023-03-14T21:11:41;98057.63;;;3.31;82.57
4024;BME280;2026;51.002;13.668;2023-03-14T21:16:48;98075.16;;;3.29;81.56
4024;BME280;2026;51.002;13.668;2023-03-14T21:21:56;98075.91;;;3.23;81.39
4024;BME280;2026;51.002;13.668;2023-03-14T21:27:00;98074.63;;;3.41;87.61
4024;BME280;2026;51.002;13.668;2023-03-14T21:32:03;98084.50;;;3.52;81.29
4024;BME280;2026;51.002;13.668;2023-03-14T21:37:07;98098.63;;;3.21;81.64
4024;BME280;2026;51.002;13.668;2023-03-14T21:42:11;98087.59;;;3.12;81.57
4024;BME280;2026;51.002;13.668;2023-03-14T21:47:14;98105.72;;;3.12;81.12
4024;BME280;2026;51.002;13.668;2023-03-14T21:52:18;98118.97;;;3.24;80.39
4024;BME280;2026;51.002;13.668;2023-03-14T21:57:23;98126.00;;;3.09;81.49
4024;BME280;2026;51.002;13.668;2023-03-14T22:02:30;98135.56;;;3.08;80.79
4024;BME280;2026;51.002;13.668;2023-03-14T22:07:33;98149.00;;;3.18;80.17
4024;BME280;2026;51.002;13.668;2023-03-14T22:12:38;98155.00;;;2.97;80.24
4024;BME280;2026;51.002;13.668;2023-03-14T22:17:41;98163.66;;;2.89;79.79
4024;BME280;2026;51.002;13.668;2023-03-14T22:22:44;98180.63;;;2.92;79.71
4024;BME280;2026;51.002;13.668;2023-03-14T22:27:48;98197.28;;;2.83;80.18
4024;BME280;2026;51.002;13.668;2023-03-14T22:32:51;98203.72;;;2.72;79.64
4024;BME280;2026;51.002;13.668;2023-03-14T22:37:54;98216.63;;;2.87;79.11
4024;BME280;2026;51.002;13.668;2023-03-14T22:42:59;98224.88;;;2.75;78.39
4024;BME280;2026;51.002;13.668;2023-03-14T22:48:02;98231.91;;;2.67;80.31
4024;BME280;2026;51.002;13.668;2023-03-14T22:53:05;98225.94;;;2.66;80.00
4024;BME280;2026;51.002;13.668;2023-03-14T22:58:09;98236.38;;;2.73;79.54
4024;BME280;2026;51.002;13.668;2023-03-14T23:03:12;98237.81;;;2.75;79.42
4024;BME280;2026;51.002;13.668;2023-03-14T23:08:15;98233.97;;;2.71;78.95
4024;BME280;2026;51.002;13.668;2023-03-14T23:13:20;98250.94;;;2.59;79.23
4024;BME280;2026;51.002;13.668;2023-03-14T23:18:24;98242.91;;;2.54;79.05
4024;BME280;2026;51.002;13.668;2023-03-14T23:23:28;98253.97;;;2.47;78.60
4024;BME280;2026;51.002;13.668;2023-03-14T23:28:32;98258.97;;;2.49;79.13
4024;BME280;2026;51.002;13.668;2023-03-14T23:33:36;98264.16;;;2.34;79.63
4024;BME280;2026;51.002;13.668;2023-03-14T23:38:39;98265.84;;;2.42;79.02
4024;BME280;2026;51.002;13.668;2023-03-14T23:43:45;98274.41;;;2.27;79.84
4024;BME280;2026;51.002;13.668;2023-03-14T23:48:48;98270.91;;;2.20;80.50
4024;BME280;2026;51.002;13.668;2023-03-14T23:53:51;98277.88;;;2.19;79.75
4024;BME280;2026;51.002;13.668;2023-03-14T23:58:56;98284.84;;;2.34;79.22
